sensor_id;sensor_type;location;lat;lon;timestamp;pressure;altitude;pressure_sealevel;temperature;humidity
2785;BME280;57944;48.722;9.316;2023-02-01T00:02:14;98740.78;;;3.28;100.00
2785;BME280;57944;48.722;9.316;2023-02-01T00:04:47;98737.84;;;3.23;100.00
2785;BME280;57944;48.722;9.316;2023-02-01T00:07:17;98730.44;;;3.21;100.00
2785;BME280;57944;48.722;9.316;2023-02-01T00:09:47;98730.78;;;3.17;100.00
2785;BME280;57944;48.722;9.316;2023-02-01T00:12:17;98732.28;;;3.19;100.00
2785;BME280;57944;48.722;9.316;2023-02-01T00:14:47;98728.06;;;3.29;100.00
2785;BME280;57944;48.722;9.316;2023-02-01T00:17:17;98723.56;;;3.33;100.00
2785;BME280;57944;48.722;9.316;2023-02-01T00:19:50;98724.09;;;3.27;100.00
2785;BME280;57944;48.722;9.316;2023-02-01T00:22:20;98724.09;;;3.27;100.00
2785;BME280;57944;48.722;9.316;2023-02-01T00:24:50;98714.13;;;3.25;100.00
2785;BME280;57944;48.722;9.316;2023-02-01T00:27:20;98711.84;;;3.22;100.00
2785;BME280;57944;48.722;9.316;2023-02-01T00:29:50;98711.59;;;3.25;100.00
2785;BME280;57944;48.722;9.316;2023-02-01T00:32:20;98714.44;;;3.32;100.00
2785;BME280;57944;48.722;9.316;2023-02-01T00:34:53;98717.31;;;3.27;100.00
2785;BME280;57944;48.722;9.316;2023-02-01T00:37:23;98724.44;;;3.22;100.00
2785;BME280;57944;48.722;9.316;2023-02-01T00:39:53;98716.63;;;3.25;100.00
2785;BME280;57944;48.722;9.316;2023-02-01T00:42:23;98708.97;;;3.27;100.00
2785;BME280;57944;48.722;9.316;2023-02-01T00:44:53;98710.88;;;3.34;100.00
2785;BME280;57944;48.722;9.316;2023-02-01T00:47:23;98708.97;;;3.27;100.00
2785;BME280;57944;48.722;9.316;2023-02-01T00:49:56;98707.63;;;3.23;100.00
2785;BME280;57944;48.722;9.316;2023-02-01T00:52:27;98705.66;;;3.26;100.00
2785;BME280;57944;48.722;9.316;2023-02-01T00:54:57;98708.19;;;3.26;100.00
2785;BME280;57944;48.722;9.316;2023-02-01T00:57:27;98704.72;;;3.27;100.00
2785;BME280;57944;48.722;9.316;2023-02-01T00:59:57;98699.06;;;3.35;100.00
2785;BME280;57944;48.722;9.316;2023-02-01T01:02:27;98695.97;;;3.31;100.00
2785;BME280;57944;48.722;9.316;2023-02-01T01:05:00;98701.00;;;3.31;100.00
2785;BME280;57944;48.722;9.316;2023-02-01T01:07:30;98703.16;;;3.26;100.00
2785;BME280;57944;48.722;9.316;2023-02-01T01:10:00;98700.63;;;3.26;100.00
2785;BME280;57944;48.722;9.316;2023-02-01T01:12:31;98704.47;;;3.30;100.00
2785;BME280;57944;48.722;9.316;2023-02-01T01:15:02;98703.41;;;3.23;100.00
2785;BME280;57944;48.722;9.316;2023-02-01T01:17:32;98715.75;;;3.26;100.00
2785;BME280;57944;48.722;9.316;2023-02-01T01:20:07;98706.31;;;3.28;100.00
2785;BME280;57944;48.722;9.316;2023-02-01T01:22:37;98701.53;;;3.25;100.00
2785;BME280;57944;48.722;9.316;2023-02-01T01:25:08;98696.91;;;3.30;100.00
2785;BME280;57944;48.722;9.316;2023-02-01T01:27:38;98702.63;;;3.32;100.00
2785;BME280;57944;48.722;9.316;2023-02-01T01:30:10;98706.63;;;3.35;100.00
2785;BME280;57944;48.722;9.316;2023-02-01T01:32:40;98696.78;;;3.32;100.00
2785;BME280;57944;48.722;9.316;2023-02-01T01:35:13;98701.94;;;3.30;100.00
2785;BME280;57944;48.722;9.316;2023-02-01T01:37:43;98705.00;;;3.34;100.00
2785;BME280;57944;48.722;9.316;2023-02-01T01:40:13;98702.22;;;3.27;100.00
2785;BME280;57944;48.722;9.316;2023-02-01T01:42:44;98702.22;;;3.27;100.00
2785;BME280;57944;48.722;9.316;2023-02-01T01:45:24;98699.56;;;3.29;100.00
2785;BME280;57944;48.722;9.316;2023-02-01T01:47:58;98694.94;;;3.34;100.00
2785;BME280;57944;48.722;9.316;2023-02-01T01:50:37;98698.72;;;3.19;100.00
2785;BME280;57944;48.722;9.316;2023-02-01T01:53:12;98703.69;;;3.30;100.00
2785;BME280;57944;48.722;9.316;2023-02-01T01:55:45;98702.22;;;3.27;100.00
2785;BME280;57944;48.722;9.316;2023-02-01T01:58:21;98688.41;;;3.31;100.00
2785;BME280;57944;48.722;9.316;2023-02-01T02:00:54;98691.34;;;3.36;100.00
2785;BME280;57944;48.722;9.316;2023-02-01T02:03:30;98682.47;;;3.32;100.00
2785;BME280;57944;48.722;9.316;2023-02-01T02:06:11;98682.22;;;3.35;100.00
2785;BME280;57944;48.722;9.316;2023-02-01T02:08:43;98679.69;;;3.35;100.00
2785;BME280;57944;48.722;9.316;2023-02-01T02:11:16;98683.53;;;3.40;100.00
2785;BME280;57944;48.722;9.316;2023-02-01T02:13:51;98675.34;;;3.38;100.00
2785;BME280;57944;48.722;9.316;2023-02-01T02:20:22;98669.34;;;3.39;100.00
2785;BME280;57944;48.722;9.316;2023-02-01T02:23:41;98670.72;;;3.43;100.00
2785;BME280;57944;48.722;9.316;2023-02-01T02:27:06;98670.13;;;3.29;100.00
2785;BME280;57944;48.722;9.316;2023-02-01T02:30:48;98673.22;;;3.43;100.00
2785;BME280;57944;48.722;9.316;2023-02-01T02:33:55;98672.56;;;3.41;100.00
2785;BME280;57944;48.722;9.316;2023-02-01T02:36:42;98667.09;;;3.45;100.00
2785;BME280;57944;48.722;9.316;2023-02-01T02:39:27;98670.72;;;3.52;100.00
2785;BME280;57944;48.722;9.316;2023-02-01T02:42:08;98654.91;;;3.50;100.00
2785;BME280;57944;48.722;9.316;2023-02-01T02:45:00;98651.75;;;3.48;100.00
2785;BME280;57944;48.722;9.316;2023-02-01T02:47:54;98664.47;;;3.47;100.00
2785;BME280;57944;48.722;9.316;2023-02-01T02:50:34;98669.66;;;3.55;100.00
2785;BME280;57944;48.722;9.316;2023-02-01T02:53:24;98660.53;;;3.54;100.00
2785;BME280;57944;48.722;9.316;2023-02-01T02:56:11;98660.53;;;3.54;100.00
2785;BME280;57944;48.722;9.316;2023-02-01T02:58:56;98664.63;;;3.55;100.00
2785;BME280;57944;48.722;9.316;2023-02-01T03:01:41;98657.06;;;3.65;100.00
2785;BME280;57944;48.722;9.316;2023-02-01T03:04:24;98658.66;;;3.56;100.00
2785;BME280;57944;48.722;9.316;2023-02-01T03:06:57;98651.47;;;3.42;100.00
2785;BME280;57944;48.722;9.316;2023-02-01T03:09:33;98646.41;;;3.42;100.00
2785;BME280;57944;48.722;9.316;2023-02-01T03:12:10;98652.91;;;3.34;100.00
2785;BME280;57944;48.722;9.316;2023-02-01T03:15:00;98656.44;;;3.22;100.00
2785;BME280;57944;48.722;9.316;2023-02-01T03:17:39;98652.75;;;3.26;100.00
2785;BME280;57944;48.722;9.316;2023-02-01T03:20:14;98648.09;;;3.22;100.00
2785;BME280;57944;48.722;9.316;2023-02-01T03:22:52;98649.13;;;3.09;100.00
2785;BME280;57944;48.722;9.316;2023-02-01T03:25:29;98639.19;;;3.08;100.00
2785;BME280;57944;48.722;9.316;2023-02-01T03:28:04;98622.22;;;3.10;100.00
2785;BME280;57944;48.722;9.316;2023-02-01T03:30:39;98625.00;;;3.07;100.00
2785;BME280;57944;48.722;9.316;2023-02-01T03:33:17;98632.13;;;3.02;100.00
2785;BME280;57944;48.722;9.316;2023-02-01T03:36:01;98624.69;;;3.00;100.00
2785;BME280;57944;48.722;9.316;2023-02-01T03:38:40;98618.63;;;3.03;100.00
2785;BME280;57944;48.722;9.316;2023-02-01T03:41:24;98613.84;;;3.00;100.00
2785;BME280;57944;48.722;9.316;2023-02-01T03:44:06;98606.13;;;2.91;100.00
2785;BME280;57944;48.722;9.316;2023-02-01T03:46:47;98607.22;;;2.99;100.00
2785;BME280;57944;48.722;9.316;2023-02-01T03:49:26;98608.13;;;2.98;100.00
2785;BME280;57944;48.722;9.316;2023-02-01T03:51:59;98600.19;;;2.93;100.00
2785;BME280;57944;48.722;9.316;2023-02-01T03:54:33;98602.56;;;2.94;100.00
2785;BME280;57944;48.722;9.316;2023-02-01T03:57:09;98591.44;;;2.97;100.00
2785;BME280;57944;48.722;9.316;2023-02-01T03:59:43;98586.28;;;2.98;100.00
2785;BME280;57944;48.722;9.316;2023-02-01T04:02:13;98598.72;;;3.00;100.00
2785;BME280;57944;48.722;9.316;2023-02-01T04:04:44;98604.03;;;2.97;100.00
2785;BME280;57944;48.722;9.316;2023-02-01T04:07:16;98608.00;;;2.99;100.00
2785;BME280;57944;48.722;9.316;2023-02-01T04:09:49;98609.72;;;2.99;100.00
2785;BME280;57944;48.722;9.316;2023-02-01T04:12:19;98614.09;;;2.97;100.00
2785;BME280;57944;48.722;9.316;2023-02-01T04:14:49;98612.00;;;3.02;100.00
2785;BME280;57944;48.722;9.316;2023-02-01T04:17:19;98610.25;;;3.02;100.00
2785;BME280;57944;48.722;9.316;2023-02-01T04:19:49;98605.50;;;3.09;100.00
2785;BME280;57944;48.722;9.316;2023-02-01T04:22:21;98610.28;;;3.12;100.00
2785;BME280;57944;48.722;9.316;2023-02-01T04:24:54;98609.63;;;3.10;100.00
2785;BME280;57944;48.722;9.316;2023-02-01T04:27:24;98603.41;;;3.14;100.00
2785;BME280;57944;48.722;9.316;2023-02-01T04:29:54;98615.72;;;3.17;100.00
2785;BME280;57944;48.722;9.316;2023-02-01T04:32:24;98625.38;;;3.12;100.00
2785;BME280;57944;48.722;9.316;2023-02-01T04:34:54;98630.94;;;3.06;100.00
2785;BME280;57944;48.722;9.316;2023-02-01T04:37:24;98634.56;;;3.13;100.00
2785;BME280;57944;48.722;9.316;2023-02-01T04:39:57;98635.88;;;3.17;100.00
2785;BME280;57944;48.722;9.316;2023-02-01T04:42:27;98639.34;;;3.16;100.00
2785;BME280;57944;48.722;9.316;2023-02-01T04:44:57;98621.69;;;3.16;100.00
2785;BME280;57944;48.722;9.316;2023-02-01T04:47:27;98614.56;;;3.21;100.00
2785;BME280;57944;48.722;9.316;2023-02-01T04:49:57;98607.91;;;3.20;100.00
2785;BME280;57944;48.722;9.316;2023-02-01T04:52:27;98593.06;;;3.17;100.00
2785;BME280;57944;48.722;9.316;2023-02-01T04:55:00;98613.34;;;3.16;100.00
2785;BME280;57944;48.722;9.316;2023-02-01T04:57:30;98619.81;;;3.08;100.00
2785;BME280;57944;48.722;9.316;2023-02-01T05:00:00;98618.50;;;3.14;100.00
2785;BME280;57944;48.722;9.316;2023-02-01T05:02:30;98609.78;;;3.18;100.00
2785;BME280;57944;48.722;9.316;2023-02-01T05:05:00;98612.47;;;3.26;100.00
2785;BME280;57944;48.722;9.316;2023-02-01T05:07:30;98615.47;;;3.20;100.00
2785;BME280;57944;48.722;9.316;2023-02-01T05:10:04;98606.06;;;3.22;100.00
2785;BME280;57944;48.722;9.316;2023-02-01T05:12:34;98601.06;;;3.32;100.00
2785;BME280;57944;48.722;9.316;2023-02-01T05:15:16;98604.63;;;3.29;100.00
2785;BME280;57944;48.722;9.316;2023-02-01T05:17:46;98603.44;;;3.33;100.00
2785;BME280;57944;48.722;9.316;2023-02-01T05:20:17;98614.31;;;3.34;100.00
2785;BME280;57944;48.722;9.316;2023-02-01T05:22:47;98619.75;;;3.39;100.00
2785;BME280;57944;48.722;9.316;2023-02-01T05:25:20;98616.97;;;3.42;100.00
2785;BME280;57944;48.722;9.316;2023-02-01T05:27:50;98623.06;;;3.40;100.00
2785;BME280;57944;48.722;9.316;2023-02-01T05:30:20;98633.97;;;3.50;100.00
2785;BME280;57944;48.722;9.316;2023-02-01T05:32:51;98631.59;;;3.58;100.00
2785;BME280;57944;48.722;9.316;2023-02-01T05:35:21;98632.91;;;3.62;100.00
2785;BME280;57944;48.722;9.316;2023-02-01T05:37:52;98618.47;;;3.64;100.00
2785;BME280;57944;48.722;9.316;2023-02-01T05:40:24;98631.75;;;3.66;100.00
2785;BME280;57944;48.722;9.316;2023-02-01T05:42:54;98628.16;;;3.78;100.00
2785;BME280;57944;48.722;9.316;2023-02-01T05:45:24;98632.91;;;3.81;100.00
2785;BME280;57944;48.722;9.316;2023-02-01T05:47:55;98629.88;;;3.68;100.00
2785;BME280;57944;48.722;9.316;2023-02-01T05:50:24;98635.06;;;3.76;100.00
2785;BME280;57944;48.722;9.316;2023-02-01T05:52:56;98642.50;;;3.68;100.00
2785;BME280;57944;48.722;9.316;2023-02-01T05:55:29;98650.47;;;3.73;100.00
2785;BME280;57944;48.722;9.316;2023-02-01T05:57:59;98642.50;;;3.68;100.00
2785;BME280;57944;48.722;9.316;2023-02-01T06:00:29;98636.38;;;3.61;100.00
2785;BME280;57944;48.722;9.316;2023-02-01T06:03:00;98637.16;;;3.62;100.00
2785;BME280;57944;48.722;9.316;2023-02-01T06:05:30;98645.50;;;3.62;100.00
2785;BME280;57944;48.722;9.316;2023-02-01T06:08:00;98631.34;;;3.51;100.00
2785;BME280;57944;48.722;9.316;2023-02-01T06:10:33;98632.34;;;3.39;100.00
2785;BME280;57944;48.722;9.316;2023-02-01T06:13:04;98627.06;;;3.32;100.00
2785;BME280;57944;48.722;9.316;2023-02-01T06:15:34;98622.53;;;3.26;100.00
2785;BME280;57944;48.722;9.316;2023-02-01T06:18:05;98614.31;;;3.24;100.00
2785;BME280;57944;48.722;9.316;2023-02-01T06:20:35;98615.72;;;3.17;100.00
2785;BME280;57944;48.722;9.316;2023-02-01T06:23:05;98604.19;;;3.14;100.00
2785;BME280;57944;48.722;9.316;2023-02-01T06:25:37;98594.69;;;3.18;100.00
2785;BME280;57944;48.722;9.316;2023-02-01T06:28:07;98606.84;;;3.13;100.00
2785;BME280;57944;48.722;9.316;2023-02-01T06:30:38;98601.81;;;3.13;100.00
2785;BME280;57944;48.722;9.316;2023-02-01T06:33:10;98607.13;;;3.10;100.00
2785;BME280;57944;48.722;9.316;2023-02-01T06:35:42;98610.53;;;3.09;100.00
2785;BME280;57944;48.722;9.316;2023-02-01T06:38:14;98607.91;;;3.10;100.00
2785;BME280;57944;48.722;9.316;2023-02-01T06:40:52;98597.31;;;3.07;100.00
2785;BME280;57944;48.722;9.316;2023-02-01T06:43:23;98605.75;;;3.06;100.00
2785;BME280;57944;48.722;9.316;2023-02-01T06:45:59;98609.63;;;3.10;100.00
2785;BME280;57944;48.722;9.316;2023-02-01T06:48:30;98613.19;;;3.07;100.00
2785;BME280;57944;48.722;9.316;2023-02-01T06:51:00;98622.34;;;3.08;100.00
2785;BME280;57944;48.722;9.316;2023-02-01T06:53:31;98628.84;;;3.11;100.00
2785;BME280;57944;48.722;9.316;2023-02-01T06:56:04;98628.72;;;3.12;100.00
2785;BME280;57944;48.722;9.316;2023-02-01T06:58:34;98623.84;;;3.21;100.00
2785;BME280;57944;48.722;9.316;2023-02-01T07:01:07;98631.25;;;3.22;100.00
2785;BME280;57944;48.722;9.316;2023-02-01T07:03:39;98640.81;;;3.19;100.00
2785;BME280;57944;48.722;9.316;2023-02-01T07:06:09;98649.56;;;3.24;100.00
2785;BME280;57944;48.722;9.316;2023-02-01T07:08:40;98651.16;;;3.25;100.00
2785;BME280;57944;48.722;9.316;2023-02-01T07:11:14;98652.50;;;3.29;100.00
2785;BME280;57944;48.722;9.316;2023-02-01T07:13:45;98653.56;;;3.27;100.00
2785;BME280;57944;48.722;9.316;2023-02-01T07:16:18;98653.81;;;3.33;100.00
2785;BME280;57944;48.722;9.316;2023-02-01T07:18:50;98658.88;;;3.33;100.00
2785;BME280;57944;48.722;9.316;2023-02-01T07:21:20;98666.16;;;3.36;100.00
2785;BME280;57944;48.722;9.316;2023-02-01T07:23:50;98662.56;;;3.29;100.00
2785;BME280;57944;48.722;9.316;2023-02-01T07:26:23;98672.13;;;3.35;100.00
2785;BME280;57944;48.722;9.316;2023-02-01T07:28:53;98677.44;;;3.42;100.00
2785;BME280;57944;48.722;9.316;2023-02-01T07:31:23;98676.91;;;3.39;100.00
2785;BME280;57944;48.722;9.316;2023-02-01T07:33:56;98679.84;;;3.44;100.00
2785;BME280;57944;48.722;9.316;2023-02-01T07:36:26;98687.66;;;3.41;100.00
2785;BME280;57944;48.722;9.316;2023-02-01T07:38:57;98686.22;;;3.48;100.00
2785;BME280;57944;48.722;9.316;2023-02-01T07:41:30;98695.81;;;3.54;100.00
2785;BME280;57944;48.722;9.316;2023-02-01T07:44:00;98698.16;;;3.55;100.00
2785;BME280;57944;48.722;9.316;2023-02-01T07:46:30;98691.81;;;3.61;100.00
2785;BME280;57944;48.722;9.316;2023-02-01T07:49:00;98687.72;;;3.70;100.00
2785;BME280;57944;48.722;9.316;2023-02-01T07:51:31;98697.69;;;3.71;100.00
2785;BME280;57944;48.722;9.316;2023-02-01T07:54:01;98688.16;;;3.85;100.00
2785;BME280;57944;48.722;9.316;2023-02-01T07:56:33;98690.00;;;3.92;100.00
2785;BME280;57944;48.722;9.316;2023-02-01T07:59:04;98693.47;;;3.91;100.00
2785;BME280;57944;48.722;9.316;2023-02-01T08:01:34;98694.28;;;4.01;100.00
2785;BME280;57944;48.722;9.316;2023-02-01T08:04:05;98682.84;;;4.07;100.00
2785;BME280;57944;48.722;9.316;2023-02-01T08:06:35;98686.03;;;4.09;100.00
2785;BME280;57944;48.722;9.316;2023-02-01T08:09:06;98690.69;;;4.14;100.00
2785;BME280;57944;48.722;9.316;2023-02-01T08:11:40;98695.59;;;4.06;100.00
2785;BME280;57944;48.722;9.316;2023-02-01T08:14:10;98689.22;;;4.11;100.00
2785;BME280;57944;48.722;9.316;2023-02-01T08:16:40;98682.84;;;4.17;100.00
2785;BME280;57944;48.722;9.316;2023-02-01T08:19:10;98682.19;;;4.24;100.00
2785;BME280;57944;48.722;9.316;2023-02-01T08:21:40;98682.03;;;4.26;100.00
2785;BME280;57944;48.722;9.316;2023-02-01T08:24:10;98676.19;;;4.25;100.00
2785;BME280;57944;48.722;9.316;2023-02-01T08:26:43;98687.22;;;4.24;100.00
2785;BME280;57944;48.722;9.316;2023-02-01T08:29:13;98689.88;;;4.33;100.00
2785;BME280;57944;48.722;9.316;2023-02-01T08:31:43;98692.66;;;4.39;100.00
2785;BME280;57944;48.722;9.316;2023-02-01T08:34:14;98681.72;;;4.58;100.00
2785;BME280;57944;48.722;9.316;2023-02-01T08:36:44;98676.13;;;4.64;100.00
2785;BME280;57944;48.722;9.316;2023-02-01T08:39:14;98684.38;;;4.66;100.00
2785;BME280;57944;48.722;9.316;2023-02-01T08:41:46;98679.03;;;4.69;100.00
2785;BME280;57944;48.722;9.316;2023-02-01T08:44:37;98680.75;;;4.79;100.00
2785;BME280;57944;48.722;9.316;2023-02-01T08:47:07;98678.31;;;4.97;100.00
2785;BME280;57944;48.722;9.316;2023-02-01T08:49:38;98666.97;;;5.01;100.00
2785;BME280;57944;48.722;9.316;2023-02-01T08:52:08;98686.00;;;5.32;100.00
2785;BME280;57944;48.722;9.316;2023-02-01T08:54:42;98693.44;;;5.34;100.00
2785;BME280;57944;48.722;9.316;2023-02-01T08:57:15;98699.72;;;5.57;100.00
2785;BME280;57944;48.722;9.316;2023-02-01T08:59:45;98695.34;;;5.50;100.00
2785;BME280;57944;48.722;9.316;2023-02-01T09:02:17;98698.47;;;5.44;100.00
2785;BME280;57944;48.722;9.316;2023-02-01T09:04:47;98699.63;;;5.49;100.00
2785;BME280;57944;48.722;9.316;2023-02-01T09:07:17;98697.31;;;5.56;100.00
2785;BME280;57944;48.722;9.316;2023-02-01T09:09:47;98689.94;;;5.45;100.00
2785;BME280;57944;48.722;9.316;2023-02-01T09:12:20;98697.72;;;5.51;100.00
2785;BME280;57944;48.722;9.316;2023-02-01T09:14:50;98698.47;;;5.44;100.00
2785;BME280;57944;48.722;9.316;2023-02-01T09:17:20;98698.50;;;5.34;100.00
2785;BME280;57944;48.722;9.316;2023-02-01T09:19:51;98702.81;;;5.24;100.00
2785;BME280;57944;48.722;9.316;2023-02-01T09:22:22;98707.75;;;5.15;100.00
2785;BME280;57944;48.722;9.316;2023-02-01T09:24:52;98698.56;;;5.14;100.00
2785;BME280;57944;48.722;9.316;2023-02-01T09:27:26;98696.56;;;5.18;100.00
2785;BME280;57944;48.722;9.316;2023-02-01T09:29:56;98706.59;;;5.00;100.00
2785;BME280;57944;48.722;9.316;2023-02-01T09:32:26;98709.34;;;4.79;100.00
2785;BME280;57944;48.722;9.316;2023-02-01T09:34:56;98715.72;;;4.74;100.00
2785;BME280;57944;48.722;9.316;2023-02-01T09:37:26;98721.44;;;4.56;100.00
2785;BME280;57944;48.722;9.316;2023-02-01T09:39:56;98719.72;;;4.66;100.00
2785;BME280;57944;48.722;9.316;2023-02-01T09:42:51;98721.84;;;4.71;100.00
2785;BME280;57944;48.722;9.316;2023-02-01T09:45:33;98724.69;;;5.05;100.00
2785;BME280;57944;48.722;9.316;2023-02-01T09:48:15;98728.50;;;5.19;100.00
2785;BME280;57944;48.722;9.316;2023-02-01T09:50:53;98733.44;;;5.11;100.00
2785;BME280;57944;48.722;9.316;2023-02-01T09:53:29;98732.09;;;5.44;100.00
2785;BME280;57944;48.722;9.316;2023-02-01T09:56:06;98738.63;;;5.92;100.00
2785;BME280;57944;48.722;9.316;2023-02-01T09:58:44;98739.53;;;6.19;100.00
2785;BME280;57944;48.722;9.316;2023-02-01T10:01:21;98726.19;;;5.81;100.00
2785;BME280;57944;48.722;9.316;2023-02-01T10:04:02;98724.78;;;5.96;100.00
2785;BME280;57944;48.722;9.316;2023-02-01T10:06:52;98730.28;;;6.10;100.00
2785;BME280;57944;48.722;9.316;2023-02-01T10:09:50;98727.66;;;6.01;100.00
2785;BME280;57944;48.722;9.316;2023-02-01T10:12:57;98734.63;;;6.35;100.00
2785;BME280;57944;48.722;9.316;2023-02-01T10:16:02;98733.75;;;6.44;100.00
2785;BME280;57944;48.722;9.316;2023-02-01T10:19:02;98741.94;;;5.75;100.00
2785;BME280;57944;48.722;9.316;2023-02-01T10:21:46;98738.41;;;5.86;100.00
2785;BME280;57944;48.722;9.316;2023-02-01T10:24:39;98753.72;;;5.56;100.00
2785;BME280;57944;48.722;9.316;2023-02-01T10:27:17;98761.88;;;5.78;100.00
2785;BME280;57944;48.722;9.316;2023-02-01T10:29:54;98761.31;;;5.84;100.00
2785;BME280;57944;48.722;9.316;2023-02-01T10:32:34;98763.91;;;5.92;100.00
2785;BME280;57944;48.722;9.316;2023-02-01T10:35:14;98765.19;;;5.78;100.00
2785;BME280;57944;48.722;9.316;2023-02-01T10:37:45;98748.75;;;5.92;100.00
2785;BME280;57944;48.722;9.316;2023-02-01T10:40:22;98746.41;;;6.09;100.00
2785;BME280;57944;48.722;9.316;2023-02-01T10:42:58;98754.19;;;6.51;100.00
2785;BME280;57944;48.722;9.316;2023-02-01T10:45:32;98746.47;;;6.79;100.00
2785;BME280;57944;48.722;9.316;2023-02-01T10:48:08;98754.06;;;7.05;100.00
2785;BME280;57944;48.722;9.316;2023-02-01T10:50:46;98756.72;;;6.95;100.00
2785;BME280;57944;48.722;9.316;2023-02-01T10:53:25;98752.84;;;7.09;100.00
2785;BME280;57944;48.722;9.316;2023-02-01T10:55:57;98753.06;;;7.24;100.00
2785;BME280;57944;48.722;9.316;2023-02-01T10:58:30;98733.88;;;6.87;100.00
2785;BME280;57944;48.722;9.316;2023-02-01T11:01:06;98744.69;;;6.71;100.00
2785;BME280;57944;48.722;9.316;2023-02-01T11:03:42;98741.56;;;6.33;100.00
2785;BME280;57944;48.722;9.316;2023-02-01T11:06:26;98745.50;;;6.54;100.00
2785;BME280;57944;48.722;9.316;2023-02-01T11:08:59;98743.53;;;6.21;100.00
2785;BME280;57944;48.722;9.316;2023-02-01T11:11:29;98742.97;;;6.54;100.00
2785;BME280;57944;48.722;9.316;2023-02-01T11:14:10;98734.53;;;6.89;100.00
2785;BME280;57944;48.722;9.316;2023-02-01T11:16:49;98737.47;;;7.02;100.00
2785;BME280;57944;48.722;9.316;2023-02-01T11:19:22;98740.81;;;7.11;100.00
2785;BME280;57944;48.722;9.316;2023-02-01T11:21:54;98727.00;;;7.05;100.00
2785;BME280;57944;48.722;9.316;2023-02-01T11:24:29;98723.91;;;7.20;100.00
2785;BME280;57944;48.722;9.316;2023-02-01T13:32:15;98647.78;;;5.81;100.00
2785;BME280;57944;48.722;9.316;2023-02-01T13:35:43;98644.78;;;5.50;100.00
2785;BME280;57944;48.722;9.316;2023-02-01T13:39:03;98643.44;;;5.55;100.00
2785;BME280;57944;48.722;9.316;2023-02-01T13:41:49;98631.38;;;5.67;100.00
2785;BME280;57944;48.722;9.316;2023-02-01T13:44:29;98642.34;;;5.76;100.00
2785;BME280;57944;48.722;9.316;2023-02-01T13:47:16;98649.34;;;5.64;100.00
2785;BME280;57944;48.722;9.316;2023-02-01T13:49:49;98640.03;;;5.65;100.00
2785;BME280;57944;48.722;9.316;2023-02-01T13:52:37;98630.84;;;5.81;100.00
2785;BME280;57944;48.722;9.316;2023-02-01T13:55:28;98639.03;;;5.93;100.00
2785;BME280;57944;48.722;9.316;2023-02-01T13:58:15;98641.69;;;5.74;100.00
2785;BME280;57944;48.722;9.316;2023-02-01T14:00:47;98625.72;;;5.55;100.00
2785;BME280;57944;48.722;9.316;2023-02-01T14:03:22;98618.59;;;5.69;100.00
2785;BME280;57944;48.722;9.316;2023-02-01T14:06:38;98623.56;;;5.60;100.00
2785;BME280;57944;48.722;9.316;2023-02-01T14:09:17;98623.41;;;5.62;100.00
2785;BME280;57944;48.722;9.316;2023-02-01T14:11:50;98623.41;;;5.44;100.00
2785;BME280;57944;48.722;9.316;2023-02-01T14:14:41;98621.53;;;5.46;100.00
2785;BME280;57944;48.722;9.316;2023-02-01T14:17:36;98632.06;;;5.42;100.00
2785;BME280;57944;48.722;9.316;2023-02-01T14:20:50;98616.50;;;5.46;100.00
2785;BME280;57944;48.722;9.316;2023-02-01T14:23:59;98603.78;;;5.38;100.00
2785;BME280;57944;48.722;9.316;2023-02-01T14:26:44;98607.38;;;5.35;100.00
2785;BME280;57944;48.722;9.316;2023-02-01T14:29:31;98611.97;;;5.40;100.00
2785;BME280;57944;48.722;9.316;2023-02-01T14:32:05;98613.50;;;5.33;100.00
2785;BME280;57944;48.722;9.316;2023-02-01T14:34:50;98620.00;;;5.35;100.00
2785;BME280;57944;48.722;9.316;2023-02-01T14:37:37;98612.19;;;5.29;100.00
2785;BME280;57944;48.722;9.316;2023-02-01T14:40:20;98626.44;;;5.30;100.00
2785;BME280;57944;48.722;9.316;2023-02-01T14:42:54;98628.78;;;5.31;100.00
2785;BME280;57944;48.722;9.316;2023-02-01T14:45:48;98625.56;;;5.39;100.00
2785;BME280;57944;48.722;9.316;2023-02-01T14:48:43;98631.84;;;5.35;100.00
2785;BME280;57944;48.722;9.316;2023-02-01T14:51:17;98636.00;;;5.26;100.00
2785;BME280;57944;48.722;9.316;2023-02-01T14:53:51;98634.09;;;5.38;100.00
2785;BME280;57944;48.722;9.316;2023-02-01T14:56:22;98636.25;;;5.33;100.00
2785;BME280;57944;48.722;9.316;2023-02-01T14:58:57;98640.72;;;5.21;100.00
2785;BME280;57944;48.722;9.316;2023-02-01T15:01:34;98652.88;;;5.08;100.00
2785;BME280;57944;48.722;9.316;2023-02-01T15:04:09;98653.38;;;5.11;100.00
2785;BME280;57944;48.722;9.316;2023-02-01T15:06:42;98669.31;;;5.12;100.00
2785;BME280;57944;48.722;9.316;2023-02-01T15:09:20;98664.00;;;5.15;100.00
2785;BME280;57944;48.722;9.316;2023-02-01T15:11:58;98651.78;;;5.10;100.00
2785;BME280;57944;48.722;9.316;2023-02-01T15:14:32;98651.59;;;5.22;100.00
2785;BME280;57944;48.722;9.316;2023-02-01T15:17:17;98648.69;;;5.17;100.00
2785;BME280;57944;48.722;9.316;2023-02-01T15:19:56;98645.59;;;5.23;100.00
2785;BME280;57944;48.722;9.316;2023-02-01T15:22:30;98658.25;;;5.23;100.00
2785;BME280;57944;48.722;9.316;2023-02-01T15:25:05;98656.75;;;5.30;100.00
2785;BME280;57944;48.722;9.316;2023-02-01T15:27:36;98656.75;;;5.30;100.00
2785;BME280;57944;48.722;9.316;2023-02-01T15:30:18;98665.72;;;5.42;100.00
2785;BME280;57944;48.722;9.316;2023-02-01T15:32:50;98655.63;;;5.42;100.00
2785;BME280;57944;48.722;9.316;2023-02-01T15:35:40;98659.41;;;5.28;100.00
2785;BME280;57944;48.722;9.316;2023-02-01T15:38:35;98669.97;;;5.24;100.00
2785;BME280;57944;48.722;9.316;2023-02-01T15:41:12;98669.13;;;5.23;100.00
2785;BME280;57944;48.722;9.316;2023-02-01T15:43:47;98681.94;;;5.22;100.00
2785;BME280;57944;48.722;9.316;2023-02-01T15:46:34;98674.06;;;5.25;100.00
2785;BME280;57944;48.722;9.316;2023-02-01T15:49:18;98662.00;;;5.46;100.00
2785;BME280;57944;48.722;9.316;2023-02-01T15:51:50;98662.81;;;5.37;100.00
2785;BME280;57944;48.722;9.316;2023-02-01T15:54:26;98659.38;;;5.38;100.00
2785;BME280;57944;48.722;9.316;2023-02-01T15:57:03;98664.78;;;5.43;100.00
2785;BME280;57944;48.722;9.316;2023-02-01T15:59:43;98665.50;;;5.35;100.00
2785;BME280;57944;48.722;9.316;2023-02-01T16:02:28;98665.88;;;5.41;100.00
2785;BME280;57944;48.722;9.316;2023-02-01T16:05:01;98673.19;;;5.44;100.00
2785;BME280;57944;48.722;9.316;2023-02-01T16:07:33;98664.47;;;5.28;100.00